Time;durP1;ratioP1;P1;durP2;ratioP2;P2;SDS_P1;SDS_P2;PMS_P1;PMS_P2;Temp;Humidity;BMP_temperature;BMP_pressure;BME280_temperature;BME280_humidity;BME280_pressure;Samples;Min_cycle;Max_cycle;Signal;HPM_P1;HPM_P2
2022/11/02 00:00:13;;;;;;;124.10;17.93;;;10.70;99.90;;;;;;4937981;29;20255;-81
2022/11/02 00:02:41;;;;;;;112.17;15.10;;;10.60;99.90;;;;;;4937596;29;20199;-80
2022/11/02 00:05:11;;;;;;;108.93;15.27;;;10.60;99.90;;;;;;4936978;29;20753;-81
2022/11/02 00:07:38;;;;;;;107.73;17.33;;;10.60;1.00;;;;;;4937654;29;20191;-79
2022/11/02 00:10:06;;;;;;;149.17;19.33;;;10.60;1.00;;;;;;4937695;29;20223;-81
2022/11/02 00:12:33;;;;;;;108.53;16.70;;;10.50;1.00;;;;;;4937870;29;20232;-80
2022/11/02 00:15:03;;;;;;;108.90;17.57;;;10.60;1.00;;;;;;4937873;29;20205;-81
2022/11/02 00:17:30;;;;;;;225.33;23.20;;;10.50;1.00;;;;;;4937726;29;20191;-80
2022/11/02 00:19:57;;;;;;;170.87;20.90;;;10.50;1.00;;;;;;4937535;29;20253;-81
2022/11/02 00:22:25;;;;;;;98.87;19.73;;;10.50;99.90;;;;;;4937355;29;20203;-82
2022/11/02 00:24:52;;;;;;;142.27;17.03;;;10.60;99.90;;;;;;4936728;29;20603;-81
2022/11/02 00:27:19;;;;;;;73.27;14.40;;;10.60;99.90;;;;;;4937453;29;20245;-81
2022/11/02 00:29:46;;;;;;;85.30;14.63;;;10.50;99.90;;;;;;4937460;29;20227;-80
2022/11/02 00:32:15;;;;;;;72.90;14.40;;;10.50;99.90;;;;;;4937117;29;20214;-81
2022/11/02 00:34:42;;;;;;;115.57;15.37;;;10.40;99.90;;;;;;4937372;29;20253;-80
2022/11/02 00:37:09;;;;;;;100.07;16.10;;;10.40;99.90;;;;;;4936695;29;20229;-80
2022/11/02 00:39:36;;;;;;;92.17;15.07;;;10.40;99.90;;;;;;4936840;29;20708;-81
2022/11/02 00:42:03;;;;;;;113.70;13.93;;;10.40;99.90;;;;;;4937476;29;20606;-80
2022/11/02 00:44:29;;;;;;;62.40;14.37;;;10.40;99.90;;;;;;4937173;29;20262;-81
2022/11/02 00:46:56;;;;;;;66.70;12.50;;;10.30;99.90;;;;;;4937075;29;20260;-82
2022/11/02 00:49:25;;;;;;;78.37;14.27;;;10.30;99.90;;;;;;4936671;29;20238;-81
2022/11/02 00:51:52;;;;;;;134.00;15.77;;;10.30;99.90;;;;;;4936858;29;20202;-81
2022/11/02 00:54:19;;;;;;;180.63;18.13;;;10.30;99.90;;;;;;4936657;29;20232;-81
2022/11/02 00:56:46;;;;;;;193.73;21.53;;;10.40;99.90;;;;;;4937050;29;20208;-80
2022/11/02 00:59:13;;;;;;;174.60;20.33;;;10.40;99.90;;;;;;4936966;29;20215;-81
2022/11/02 01:01:46;;;;;;;200.93;20.83;;;10.40;99.90;;;;;;4936839;29;20195;-81
2022/11/02 01:04:13;;;;;;;147.80;17.70;;;10.40;99.90;;;;;;4936589;29;20200;-82
2022/11/02 01:06:41;;;;;;;177.13;17.37;;;10.40;99.90;;;;;;4935827;29;20199;-80
2022/11/02 01:09:08;;;;;;;121.07;15.80;;;10.40;99.90;;;;;;4936303;29;20199;-82
2022/11/02 01:11:36;;;;;;;172.53;17.97;;;10.40;99.90;;;;;;4936721;29;20297;-80
2022/11/02 01:14:03;;;;;;;110.17;17.13;;;10.40;99.90;;;;;;4936574;29;20725;-81
2022/11/02 01:16:30;;;;;;;101.37;15.90;;;10.40;99.90;;;;;;4936842;29;20229;-81
2022/11/02 01:18:58;;;;;;;117.57;14.43;;;10.40;99.90;;;;;;4936324;29;20619;-80
2022/11/02 01:21:25;;;;;;;102.50;15.00;;;10.40;99.90;;;;;;4936245;29;20320;-81
2022/11/02 01:23:55;;;;;;;124.37;13.70;;;10.40;99.90;;;;;;4936159;29;20595;-81
2022/11/02 01:26:22;;;;;;;122.37;14.57;;;10.40;99.90;;;;;;4936144;29;20189;-81
2022/11/02 01:28:49;;;;;;;140.93;17.73;;;10.40;99.90;;;;;;4936071;29;20227;-81
2022/11/02 01:31:16;;;;;;;151.47;17.17;;;10.40;99.90;;;;;;4935916;29;20211;-82
2022/11/02 01:33:44;;;;;;;118.37;15.03;;;10.30;99.90;;;;;;4936024;29;20669;-81
2022/11/02 01:36:13;;;;;;;123.83;16.20;;;10.40;99.90;;;;;;4935790;29;20241;-80
2022/11/02 01:38:40;;;;;;;102.27;15.00;;;10.30;99.90;;;;;;4936205;29;20208;-81
2022/11/02 01:41:11;;;;;;;94.33;13.93;;;10.30;99.90;;;;;;4935841;29;20733;-81
2022/11/02 01:43:41;;;;;;;97.53;15.17;;;10.20;99.90;;;;;;4935561;29;20647;-80
2022/11/02 01:46:15;;;;;;;136.17;15.27;;;10.20;99.90;;;;;;4936066;29;20201;-80
2022/11/02 01:48:46;;;;;;;134.17;14.93;;;10.10;99.90;;;;;;4935769;29;20181;-80
2022/11/02 01:51:18;;;;;;;109.03;16.07;;;10.10;99.90;;;;;;4935899;29;20208;-80
2022/11/02 01:53:47;;;;;;;112.50;15.40;;;10.10;99.90;;;;;;4935961;29;20233;-81
2022/11/02 01:56:19;;;;;;;91.57;13.63;;;10.00;99.90;;;;;;4935580;29;20664;-80
2022/11/02 01:58:52;;;;;;;61.77;12.17;;;9.90;99.90;;;;;;4935603;29;20198;-80
2022/11/02 02:01:19;;;;;;;68.40;13.17;;;9.80;99.90;;;;;;4935516;29;20182;-80
2022/11/02 02:03:47;;;;;;;88.47;13.03;;;9.70;99.90;;;;;;4935305;29;20741;-80
2022/11/02 02:06:16;;;;;;;78.93;13.17;;;9.70;99.90;;;;;;4934846;29;20273;-81
2022/11/02 02:08:47;;;;;;;55.23;11.77;;;9.70;99.90;;;;;;4935377;29;20692;-82
2022/11/02 02:11:30;;;;;;;78.67;12.23;;;9.60;99.90;;;;;;4935867;29;20223;-81
2022/11/02 02:14:00;;;;;;;96.67;12.60;;;9.60;99.90;;;;;;4935295;29;20571;-81
2022/11/02 02:17:03;;;;;;;119.03;13.57;;;9.50;99.90;;;;;;4935150;29;20196;-81
2022/11/02 02:19:40;;;;;;;79.50;13.73;;;9.50;99.90;;;;;;4931511;28;20619;-81
2022/11/02 02:22:26;;;;;;;86.23;13.73;;;9.50;99.90;;;;;;4934653;29;20817;-80
2022/11/02 02:25:06;;;;;;;96.43;13.17;;;9.50;99.90;;;;;;4935437;29;20234;-81
2022/11/02 02:27:51;;;;;;;122.80;13.43;;;9.50;99.90;;;;;;4935351;29;20205;-81
2022/11/02 02:30:18;;;;;;;125.97;13.37;;;9.50;1.00;;;;;;4935017;29;20234;-81
2022/11/02 02:32:50;;;;;;;99.60;13.10;;;9.60;99.90;;;;;;4935132;29;20607;-81
2022/11/02 02:35:25;;;;;;;152.40;18.00;;;9.60;99.90;;;;;;4935159;29;20189;-80
2022/11/02 02:37:57;;;;;;;111.30;15.53;;;9.60;99.90;;;;;;4915834;29;20700;-79
2022/11/02 02:40:31;;;;;;;132.67;16.70;;;9.60;1.00;;;;;;4916311;29;20191;-80
2022/11/02 02:43:06;;;;;;;181.23;19.90;;;9.60;99.90;;;;;;4929026;29;20272;-80
2022/11/02 02:45:37;;;;;;;145.97;14.83;;;9.70;99.90;;;;;;4935138;29;20243;-80
2022/11/02 02:48:09;;;;;;;97.50;14.30;;;9.60;99.90;;;;;;4935362;29;20596;-80
2022/11/02 02:50:43;;;;;;;69.47;13.43;;;9.60;99.90;;;;;;4935222;29;20205;-81
2022/11/02 02:53:14;;;;;;;70.73;13.13;;;9.60;99.90;;;;;;4935090;29;20192;-80
2022/11/02 02:55:46;;;;;;;58.63;12.37;;;9.50;99.90;;;;;;4934464;29;20185;-81
2022/11/02 02:58:18;;;;;;;41.27;12.67;;;9.50;99.90;;;;;;4934743;29;20226;-80
2022/11/02 03:00:45;;;;;;;45.23;13.50;;;9.40;99.90;;;;;;4935003;29;20699;-82
2022/11/02 03:03:17;;;;;;;56.30;14.23;;;9.40;99.90;;;;;;4934476;28;20609;-80
2022/11/02 03:05:55;;;;;;;64.03;13.83;;;9.30;99.90;;;;;;4934778;29;20204;-79
2022/11/02 03:08:22;;;;;;;65.87;14.37;;;9.30;99.90;;;;;;4934819;29;20224;-80
2022/11/02 03:10:57;;;;;;;65.37;13.63;;;9.30;99.90;;;;;;4934303;29;20601;-81
2022/11/02 03:13:37;;;;;;;120.90;17.93;;;9.20;99.90;;;;;;4934827;29;20189;-80
2022/11/02 03:16:11;;;;;;;100.03;16.27;;;9.20;99.90;;;;;;4934675;29;20188;-82
2022/11/02 03:18:47;;;;;;;80.23;16.03;;;9.20;99.90;;;;;;4934517;29;20189;-80
2022/11/02 03:21:28;;;;;;;42.20;14.33;;;9.20;99.90;;;;;;4934377;29;20275;-79
2022/11/02 03:24:00;;;;;;;40.13;15.77;;;9.20;99.90;;;;;;4934625;29;20246;-79
2022/11/02 03:26:33;;;;;;;42.17;14.97;;;9.10;99.90;;;;;;4934838;29;20191;-81
2022/11/02 03:29:06;;;;;;;52.83;16.50;;;9.10;99.90;;;;;;4934442;29;20243;-79
2022/11/02 03:31:38;;;;;;;64.93;19.20;;;9.10;99.90;;;;;;4934891;29;20211;-80
2022/11/02 03:34:16;;;;;;;38.47;14.57;;;9.00;99.90;;;;;;4938506;29;20244;-79
2022/11/02 03:36:48;;;;;;;73.83;20.40;;;9.00;99.90;;;;;;4937680;29;20319;-82
2022/11/02 03:39:19;;;;;;;59.17;17.30;;;8.90;99.90;;;;;;4938128;29;20189;-80
2022/11/02 03:41:48;;;;;;;93.90;21.07;;;8.90;99.90;;;;;;4938108;29;20194;-80
2022/11/02 03:44:21;;;;;;;47.87;14.00;;;8.80;99.90;;;;;;4938304;29;20271;-80
2022/11/02 03:46:50;;;;;;;70.27;17.57;;;8.80;99.90;;;;;;4937619;29;20194;-81
2022/11/02 03:49:20;;;;;;;48.87;15.03;;;8.70;99.90;;;;;;4937630;29;20582;-80
2022/11/02 03:51:48;;;;;;;48.17;15.17;;;8.70;99.90;;;;;;4937812;29;20279;-81
2022/11/02 03:54:24;;;;;;;57.10;13.90;;;8.70;99.90;;;;;;4937516;29;20203;-81
2022/11/02 03:56:57;;;;;;;55.80;13.87;;;8.70;99.90;;;;;;4937756;29;20184;-79
2022/11/02 03:59:25;;;;;;;51.63;14.97;;;8.70;99.90;;;;;;4937754;29;20184;-80
2022/11/02 04:01:53;;;;;;;128.17;18.90;;;8.70;99.90;;;;;;4936711;29;20261;-80
2022/11/02 04:04:20;;;;;;;85.77;16.70;;;8.70;99.90;;;;;;4937691;29;20203;-81
2022/11/02 04:06:48;;;;;;;146.30;23.57;;;8.70;99.90;;;;;;4937701;29;20202;-80
2022/11/02 04:09:15;;;;;;;78.83;17.57;;;8.80;99.90;;;;;;4937595;29;20688;-80
2022/11/02 04:14:40;;;;;;;96.63;24.57;;;9.10;99.90;;;;;;4937364;29;20193;-80
2022/11/02 04:19:54;;;;;;;105.07;18.17;;;9.20;99.90;;;;;;4936992;29;20275;-79
2022/11/02 04:25:17;;;;;;;117.23;20.30;;;9.30;99.90;;;;;;4937595;29;20303;-80
2022/11/02 04:27:46;;;;;;;83.87;17.63;;;9.30;99.90;;;;;;4937451;29;20196;-81
2022/11/02 04:30:16;;;;;;;101.53;17.07;;;9.30;99.90;;;;;;4937209;29;20663;-80
2022/11/02 04:35:30;;;;;;;117.87;17.87;;;9.30;99.90;;;;;;4936865;29;20197;-79
2022/11/02 04:40:42;;;;;;;92.43;17.97;;;9.30;99.90;;;;;;4924842;29;20274;-80
2022/11/02 04:43:09;;;;;;;140.90;20.40;;;9.30;99.90;;;;;;4936809;29;20252;-80
2022/11/02 04:45:37;;;;;;;130.23;18.90;;;9.30;99.90;;;;;;4937437;29;20328;-80
2022/11/02 04:48:06;;;;;;;141.57;19.90;;;9.30;99.90;;;;;;4937417;29;20195;-81
2022/11/02 04:50:34;;;;;;;85.87;16.90;;;9.30;99.90;;;;;;4936614;29;20220;-80
2022/11/02 04:53:03;;;;;;;110.33;16.57;;;9.30;99.90;;;;;;4937351;29;20207;-81
2022/11/02 04:55:30;;;;;;;123.73;19.60;;;9.30;99.90;;;;;;4937004;29;20202;-80
2022/11/02 04:57:57;;;;;;;83.60;17.20;;;9.30;99.90;;;;;;4937267;29;20274;-80
2022/11/02 05:00:24;;;;;;;90.67;14.73;;;9.30;99.90;;;;;;4936927;29;20196;-81
2022/11/02 05:02:52;;;;;;;55.23;12.13;;;9.30;99.90;;;;;;4937148;29;20244;-80
2022/11/02 05:05:19;;;;;;;40.30;11.43;;;9.30;99.90;;;;;;4936819;29;20619;-79
2022/11/02 05:07:46;;;;;;;25.27;9.97;;;9.30;99.90;;;;;;4936817;29;20201;-80
2022/11/02 05:10:13;;;;;;;33.63;9.10;;;9.20;99.90;;;;;;4936842;29;20263;-81
2022/11/02 05:12:40;;;;;;;29.77;11.20;;;9.20;99.90;;;;;;4936734;29;20207;-80
2022/11/02 05:15:08;;;;;;;37.23;13.33;;;9.10;99.90;;;;;;4936910;29;20204;-82
2022/11/02 05:17:35;;;;;;;29.63;11.37;;;9.00;99.90;;;;;;4937115;29;20214;-81
2022/11/02 05:20:04;;;;;;;23.53;11.50;;;9.00;99.90;;;;;;4935817;29;20221;-81
2022/11/02 05:22:31;;;;;;;32.40;12.23;;;8.90;99.90;;;;;;4936510;29;20208;-80
2022/11/02 05:24:59;;;;;;;34.23;19.37;;;8.90;99.90;;;;;;4936554;29;20670;-80
2022/11/02 05:27:26;;;;;;;47.50;19.37;;;8.80;99.90;;;;;;4936781;29;20296;-81
2022/11/02 05:29:52;;;;;;;113.47;36.37;;;8.80;99.90;;;;;;4936428;29;20231;-81
2022/11/02 05:32:19;;;;;;;69.03;23.63;;;8.70;99.90;;;;;;4936317;29;20219;-80
2022/11/02 05:34:46;;;;;;;28.43;13.73;;;8.60;99.90;;;;;;4936082;29;20670;-81
2022/11/02 05:37:15;;;;;;;27.97;12.17;;;8.60;99.90;;;;;;4936038;29;20224;-79
2022/11/02 05:39:42;;;;;;;43.90;16.63;;;8.50;99.90;;;;;;4935846;29;21896;-80
2022/11/02 05:42:09;;;;;;;58.97;15.80;;;8.50;99.90;;;;;;4936371;29;20186;-81
2022/11/02 05:44:36;;;;;;;73.80;20.87;;;8.40;99.90;;;;;;4936233;29;20254;-82
2022/11/02 05:47:03;;;;;;;88.27;25.77;;;8.40;99.90;;;;;;4936052;29;20262;-81
2022/11/02 05:49:30;;;;;;;63.57;20.60;;;8.40;99.90;;;;;;4936155;29;20202;-80
2022/11/02 05:51:58;;;;;;;73.07;23.17;;;8.40;99.90;;;;;;4935981;29;20219;-81
2022/11/02 05:54:26;;;;;;;64.90;23.47;;;8.40;99.90;;;;;;4936075;29;20210;-81
2022/11/02 05:56:53;;;;;;;112.03;30.23;;;8.40;99.90;;;;;;4935913;29;20203;-82
2022/11/02 05:59:20;;;;;;;71.97;21.97;;;8.40;99.90;;;;;;4935868;29;20654;-80
2022/11/02 06:01:47;;;;;;;85.60;28.47;;;8.30;99.90;;;;;;4935682;29;20616;-80
2022/11/02 06:04:14;;;;;;;70.57;27.30;;;8.30;99.90;;;;;;4935763;29;20208;-80
2022/11/02 06:06:41;;;;;;;80.73;27.17;;;8.30;99.90;;;;;;4935335;29;20195;-81
2022/11/02 06:09:08;;;;;;;102.50;25.53;;;8.20;99.90;;;;;;4935336;29;20266;-81
2022/11/02 06:11:37;;;;;;;84.83;26.27;;;8.20;99.90;;;;;;4935646;29;20222;-81
2022/11/02 06:14:04;;;;;;;89.77;30.93;;;8.30;99.90;;;;;;4934856;29;20195;-80
2022/11/02 06:16:31;;;;;;;134.03;34.03;;;8.30;99.90;;;;;;4935901;29;20203;-79
2022/11/02 06:18:58;;;;;;;122.93;33.70;;;8.30;99.90;;;;;;4935094;29;20226;-80
2022/11/02 06:21:25;;;;;;;93.50;20.10;;;8.40;99.90;;;;;;4935252;29;20203;-80
2022/11/02 06:23:51;;;;;;;70.73;19.37;;;8.40;99.90;;;;;;4935556;29;20227;-80
2022/11/02 06:26:18;;;;;;;72.93;15.53;;;8.40;99.90;;;;;;4935224;29;20202;-80
2022/11/02 06:28:47;;;;;;;53.97;14.10;;;8.40;99.90;;;;;;4935490;29;20640;-80
2022/11/02 06:31:16;;;;;;;87.37;16.83;;;8.40;99.90;;;;;;4935040;29;20234;-79
2022/11/02 06:33:44;;;;;;;61.67;16.27;;;8.40;99.90;;;;;;4935355;29;20237;-80
2022/11/02 06:36:12;;;;;;;80.80;19.77;;;8.40;99.90;;;;;;4935332;29;20233;-80
2022/11/02 06:38:40;;;;;;;67.93;16.10;;;8.40;99.90;;;;;;4935058;29;20694;-80
2022/11/02 06:41:07;;;;;;;36.73;13.33;;;8.40;99.90;;;;;;4935090;29;20210;-80
2022/11/02 06:43:37;;;;;;;53.13;15.40;;;8.40;99.90;;;;;;4934970;29;20238;-79
2022/11/02 06:46:06;;;;;;;72.90;17.67;;;8.40;99.90;;;;;;4935272;29;20202;-79
2022/11/02 06:48:33;;;;;;;41.07;13.00;;;8.40;99.90;;;;;;4935017;29;20196;-79
2022/11/02 06:51:00;;;;;;;40.83;13.23;;;8.40;99.90;;;;;;4935097;29;20223;-80
2022/11/02 06:53:27;;;;;;;40.67;12.73;;;8.50;99.90;;;;;;4935170;29;20203;-80
2022/11/02 06:55:54;;;;;;;32.33;11.80;;;8.50;99.90;;;;;;4934842;29;20207;-80
2022/11/02 06:58:23;;;;;;;25.17;11.43;;;8.60;99.90;;;;;;4934790;29;20281;-80
2022/11/02 07:00:50;;;;;;;34.80;13.33;;;8.50;99.90;;;;;;4934820;29;20298;-79
2022/11/02 07:03:18;;;;;;;33.60;14.07;;;8.50;99.90;;;;;;4935009;29;20230;-79
2022/11/02 07:05:51;;;;;;;41.93;14.53;;;8.60;99.90;;;;;;4935079;29;20611;-80
2022/11/02 07:08:18;;;;;;;28.87;14.70;;;8.60;99.90;;;;;;4934463;29;20190;-80
2022/11/02 07:10:46;;;;;;;22.97;13.90;;;8.60;99.90;;;;;;4935165;29;20210;-80
2022/11/02 07:13:13;;;;;;;26.27;14.20;;;8.60;99.90;;;;;;4934934;29;20255;-80
2022/11/02 07:15:40;;;;;;;30.27;17.00;;;8.60;99.90;;;;;;4934691;29;20259;-79
2022/11/02 07:18:08;;;;;;;37.00;18.63;;;8.60;99.90;;;;;;4934961;29;20978;-79
2022/11/02 07:20:37;;;;;;;36.90;20.93;;;8.60;99.90;;;;;;4934600;29;20200;-80
2022/11/02 07:23:05;;;;;;;164.93;113.17;;;8.70;99.90;;;;;;4934889;29;20223;-80
2022/11/02 07:25:33;;;;;;;47.47;20.93;;;8.70;99.90;;;;;;4934831;29;20238;-80
2022/11/02 07:28:01;;;;;;;48.83;13.87;;;8.80;99.90;;;;;;4934872;29;20203;-79
2022/11/02 07:30:28;;;;;;;54.13;13.80;;;8.80;99.90;;;;;;4934576;29;20204;-79
2022/11/02 07:32:55;;;;;;;44.10;14.50;;;8.80;99.90;;;;;;4934789;29;20286;-80
2022/11/02 07:35:22;;;;;;;44.27;14.27;;;8.80;99.90;;;;;;4934161;29;20401;-80
2022/11/02 07:37:58;;;;;;;43.13;17.30;;;8.80;99.90;;;;;;4934390;29;20236;-80
2022/11/02 07:40:25;;;;;;;65.50;29.07;;;8.90;99.90;;;;;;4934795;29;20196;-80
2022/11/02 07:42:53;;;;;;;34.53;15.20;;;8.90;99.90;;;;;;4934718;29;20203;-80
2022/11/02 07:45:20;;;;;;;24.97;14.33;;;8.90;99.90;;;;;;4934731;29;20206;-79
2022/11/02 07:47:48;;;;;;;29.60;14.83;;;8.90;99.90;;;;;;4934572;29;20663;-80
2022/11/02 07:50:17;;;;;;;29.17;15.47;;;8.90;99.90;;;;;;4934856;29;20666;-80
2022/11/02 07:52:46;;;;;;;34.13;20.30;;;9.00;99.90;;;;;;4934371;29;20232;-79
2022/11/02 07:55:17;;;;;;;29.80;16.67;;;9.00;99.90;;;;;;4934352;29;20208;-80
2022/11/02 07:57:52;;;;;;;23.67;15.23;;;9.10;99.90;;;;;;4934402;29;20248;-80
2022/11/02 08:00:19;;;;;;;40.87;23.80;;;9.20;1.00;;;;;;4934831;29;20240;-80
2022/11/02 08:02:46;;;;;;;27.23;14.77;;;9.30;1.00;;;;;;4934748;29;20204;-80
2022/11/02 08:05:13;;;;;;;23.10;13.83;;;9.40;1.00;;;;;;4934519;29;20213;-80
2022/11/02 08:07:40;;;;;;;21.70;13.70;;;9.50;1.00;;;;;;4934591;29;20208;-80
2022/11/02 08:10:08;;;;;;;21.30;13.47;;;9.60;1.00;;;;;;4934351;29;20204;-80
2022/11/02 08:12:36;;;;;;;25.00;14.27;;;9.70;1.00;;;;;;4934393;29;20218;-79
2022/11/02 08:15:04;;;;;;;19.30;12.67;;;9.80;1.00;;;;;;4934252;29;20262;-80
2022/11/02 08:17:30;;;;;;;20.77;9.87;;;9.90;1.00;;;;;;4934113;29;20205;-80
2022/11/02 08:19:57;;;;;;;21.33;9.67;;;10.00;1.00;;;;;;4937107;29;20207;-80
2022/11/02 08:22:24;;;;;;;15.17;8.43;;;10.10;1.00;;;;;;4937728;29;20230;-80
2022/11/02 08:24:51;;;;;;;16.67;8.80;;;10.30;1.00;;;;;;4937335;29;20193;-80
2022/11/02 08:27:18;;;;;;;17.80;8.13;;;10.30;1.00;;;;;;4937859;29;20200;-80
2022/11/02 08:29:47;;;;;;;12.53;7.13;;;10.40;1.00;;;;;;4937618;29;20234;-80
2022/11/02 08:32:14;;;;;;;15.90;7.77;;;10.50;1.00;;;;;;4937526;29;20230;-79
2022/11/02 08:34:41;;;;;;;17.87;7.17;;;10.60;1.00;;;;;;4937237;29;20206;-80
2022/11/02 08:37:08;;;;;;;17.17;7.30;;;10.60;1.00;;;;;;4935991;29;20233;-79
2022/11/02 08:39:35;;;;;;;15.77;6.53;;;10.70;1.00;;;;;;4937424;29;20289;-80
2022/11/02 08:42:03;;;;;;;15.27;6.63;;;10.70;1.00;;;;;;4937404;29;20199;-80
2022/11/02 08:44:29;;;;;;;16.13;6.53;;;10.80;1.00;;;;;;4937046;29;20666;-80
2022/11/02 08:46:58;;;;;;;14.27;6.17;;;10.90;1.00;;;;;;4937348;29;20211;-80
2022/11/02 08:49:25;;;;;;;17.80;7.07;;;10.90;1.00;;;;;;4936964;29;20203;-80
2022/11/02 08:51:52;;;;;;;13.73;5.97;;;11.00;1.00;;;;;;4937365;29;20296;-79
2022/11/02 08:54:19;;;;;;;13.60;6.27;;;11.10;1.00;;;;;;4937246;29;20205;-79
2022/11/02 09:00:09;;;;;;;14.23;6.17;;;11.30;1.00;;;;;;4936911;29;20550;-79
2022/11/02 09:02:38;;;;;;;14.27;6.50;;;11.40;1.00;;;;;;4935858;29;20207;-79
2022/11/02 09:05:05;;;;;;;10.80;5.20;;;11.50;99.90;;;;;;4937046;29;20208;-80
2022/11/02 09:07:32;;;;;;;14.10;5.17;;;11.50;99.90;;;;;;4937044;29;20197;-80
2022/11/02 09:09:59;;;;;;;12.50;6.03;;;11.50;99.90;;;;;;4936967;29;20207;-80
2022/11/02 09:12:26;;;;;;;12.53;5.53;;;11.60;99.90;;;;;;4936840;29;20219;-79
2022/11/02 09:14:53;;;;;;;14.27;5.40;;;11.60;99.90;;;;;;4936887;29;20596;-79
2022/11/02 09:17:20;;;;;;;11.93;5.27;;;11.70;99.90;;;;;;4937046;29;20588;-79
2022/11/02 09:19:49;;;;;;;12.57;5.53;;;11.80;99.90;;;;;;4936383;29;20668;-79
2022/11/02 09:22:16;;;;;;;20.80;5.47;;;11.90;99.90;;;;;;4936091;29;20206;-79
2022/11/02 09:24:43;;;;;;;13.50;5.37;;;12.00;99.90;;;;;;4936556;29;20212;-79
2022/11/02 09:27:10;;;;;;;10.53;4.93;;;12.10;99.90;;;;;;4936497;29;20207;-79
2022/11/02 09:29:37;;;;;;;10.23;5.13;;;12.10;99.90;;;;;;4936004;29;20691;-79
2022/11/02 09:32:04;;;;;;;13.03;4.80;;;12.20;99.90;;;;;;4936456;29;20221;-80
2022/11/02 09:34:31;;;;;;;16.43;5.80;;;12.20;99.90;;;;;;4936156;29;20556;-79
2022/11/02 09:37:00;;;;;;;13.33;4.93;;;12.30;99.90;;;;;;4936006;29;20234;-79
2022/11/02 09:39:27;;;;;;;18.80;5.17;;;12.30;99.90;;;;;;4936354;29;20206;-79
2022/11/02 09:42:06;;;;;;;14.43;4.77;;;12.40;99.90;;;;;;4936542;29;20200;-79
2022/11/02 09:44:43;;;;;;;23.53;7.90;;;12.50;99.90;;;;;;4935961;29;20201;-79
2022/11/02 09:47:12;;;;;;;9.13;4.50;;;12.50;99.90;;;;;;4936321;29;20186;-80
2022/11/02 09:49:41;;;;;;;12.67;4.63;;;12.60;49.40;;;;;;4935904;29;20670;-79
2022/11/02 09:52:18;;;;;;;13.10;5.10;;;12.60;19.80;;;;;;4936098;29;20222;-80
2022/11/02 09:54:50;;;;;;;12.37;5.47;;;12.60;46.50;;;;;;4935344;29;20220;-79
2022/11/02 09:57:28;;;;;;;11.67;5.37;;;12.70;96.80;;;;;;4935776;29;20245;-79
2022/11/02 09:59:56;;;;;;;10.60;4.07;;;12.80;25.90;;;;;;4917261;29;20182;-80
2022/11/02 10:02:33;;;;;;;12.63;5.77;;;12.90;1.00;;;;;;4917164;29;20271;-80
2022/11/02 10:05:22;;;;;;;12.83;5.10;;;12.90;2.40;;;;;;4916693;29;20649;-80
2022/11/02 10:08:10;;;;;;;9.93;4.77;;;13.00;13.00;;;;;;4916613;29;20647;-80
2022/11/02 10:10:39;;;;;;;14.87;4.90;;;13.10;1.00;;;;;;4916871;29;20199;-80
2022/11/02 10:13:22;;;;;;;12.13;4.00;;;13.20;1.00;;;;;;4916709;29;20228;-79
2022/11/02 10:15:52;;;;;;;13.13;4.40;;;13.20;1.00;;;;;;4916453;29;20195;-80
2022/11/02 10:18:23;;;;;;;13.27;3.67;;;13.30;1.00;;;;;;4916785;29;20189;-80
2022/11/02 10:20:54;;;;;;;13.93;4.10;;;13.30;1.00;;;;;;4916773;29;20200;-80
2022/11/02 10:23:26;;;;;;;10.17;3.97;;;13.30;99.90;;;;;;4916680;29;20179;-80
2022/11/02 10:25:54;;;;;;;14.13;4.17;;;13.40;99.90;;;;;;4916869;29;20193;-80
2022/11/02 10:28:26;;;;;;;7.67;3.57;;;13.50;99.90;;;;;;4916528;29;20203;-80
2022/11/02 10:30:54;;;;;;;11.17;3.20;;;13.60;99.90;;;;;;4916828;29;20659;-80
2022/11/02 10:33:26;;;;;;;11.07;2.87;;;13.70;77.90;;;;;;4916110;29;20229;-80
2022/11/02 10:36:08;;;;;;;25.10;4.97;;;13.80;1.00;;;;;;4916363;29;20279;-80
2022/11/02 10:38:44;;;;;;;8.80;2.70;;;13.80;1.00;;;;;;4916164;29;20217;-80
2022/11/02 10:41:39;;;;;;;12.83;2.67;;;14.00;1.00;;;;;;4915823;29;20243;-79
2022/11/02 10:44:22;;;;;;;18.93;3.93;;;14.00;99.90;;;;;;4923309;29;20685;-80
2022/11/02 10:47:03;;;;;;;7.37;2.97;;;14.10;1.00;;;;;;4935334;29;20587;-80
2022/11/02 10:50:10;;;;;;;12.00;3.07;;;14.10;1.00;;;;;;4935288;29;20188;-80
2022/11/02 10:52:39;;;;;;;9.77;2.97;;;14.10;99.90;;;;;;4929642;29;20581;-80
2022/11/02 10:55:17;;;;;;;8.87;2.43;;;14.10;1.00;;;;;;4935029;29;20255;-80
2022/11/02 10:57:45;;;;;;;11.77;3.33;;;14.10;1.00;;;;;;4934976;29;20192;-80
2022/11/02 11:00:31;;;;;;;15.60;4.17;;;14.10;1.00;;;;;;4935137;29;20652;-80
2022/11/02 11:03:10;;;;;;;10.97;3.63;;;14.20;1.00;;;;;;4935356;29;20248;-79
2022/11/02 11:05:52;;;;;;;13.37;3.77;;;14.30;1.00;;;;;;4934821;29;20236;-80
2022/11/02 11:08:35;;;;;;;12.23;3.30;;;14.60;99.90;;;;;;4935137;29;20238;-80
2022/11/02 11:11:17;;;;;;;9.38;3.95;;;14.80;1.00;;;;;;4934748;29;20239;-80
2022/11/02 11:13:52;;;;;;;6.85;2.60;;;15.10;99.90;;;;;;4934636;29;20615;-80
2022/11/02 11:16:29;;;;;;;9.73;3.00;;;15.30;1.00;;;;;;4935057;29;20191;-80
2022/11/02 11:18:56;;;;;;;7.32;2.63;;;15.50;99.90;;;;;;4934797;29;20183;-80
2022/11/02 11:21:34;;;;;;;11.93;4.25;;;15.70;1.00;;;;;;4934718;29;20210;-80
2022/11/02 11:24:17;;;;;;;8.32;2.75;;;15.80;1.00;;;;;;4934730;29;20245;-80
2022/11/02 11:26:46;;;;;;;6.88;2.38;;;16.00;1.00;;;;;;4934608;29;20192;-80
2022/11/02 11:29:22;;;;;;;10.25;2.70;;;16.00;1.00;;;;;;4934900;29;20200;-80
2022/11/02 11:31:49;;;;;;;7.00;2.47;;;16.00;1.00;;;;;;4934586;29;20235;-80
2022/11/02 11:34:25;;;;;;;13.10;2.78;;;15.90;99.90;;;;;;4934453;29;20275;-80
2022/11/02 11:36:53;;;;;;;7.43;2.60;;;15.70;99.90;;;;;;4934474;29;20239;-80
2022/11/02 11:39:26;;;;;;;10.88;3.38;;;15.70;5.00;;;;;;4934779;29;20256;-80
2022/11/02 11:41:55;;;;;;;4.78;2.40;;;15.70;16.70;;;;;;4934793;29;20636;-80
2022/11/02 11:44:22;;;;;;;11.60;2.92;;;15.80;1.00;;;;;;4934523;29;20191;-81
2022/11/02 11:46:53;;;;;;;8.57;2.72;;;15.90;1.00;;;;;;4934723;29;20263;-81
2022/11/02 11:49:24;;;;;;;8.73;2.28;;;16.00;1.00;;;;;;4934747;29;20635;-81
2022/11/02 11:51:53;;;;;;;8.75;2.30;;;16.20;99.90;;;;;;4934200;29;20232;-80
2022/11/02 11:54:26;;;;;;;8.10;1.90;;;16.20;1.00;;;;;;4938055;29;20236;-80
2022/11/02 11:56:56;;;;;;;12.15;2.95;;;16.10;1.00;;;;;;4937938;29;20284;-80
2022/11/02 11:59:30;;;;;;;6.80;2.10;;;16.00;1.00;;;;;;4937927;29;20204;-80
2022/11/02 12:01:59;;;;;;;29.73;8.98;;;15.90;1.00;;;;;;4937829;29;20687;-80
2022/11/02 12:04:28;;;;;;;6.75;2.03;;;15.80;99.90;;;;;;4937799;29;20623;-80
2022/11/02 12:07:13;;;;;;;8.05;2.13;;;15.60;99.90;;;;;;4938025;29;20260;-80
2022/11/02 12:09:47;;;;;;;23.42;9.88;;;15.50;1.00;;;;;;4937760;29;20603;-80
2022/11/02 12:12:25;;;;;;;9.05;2.13;;;15.40;1.00;;;;;;4937659;29;20193;-80
2022/11/02 12:15:03;;;;;;;7.45;2.10;;;15.30;1.00;;;;;;4937252;29;20603;-80
2022/11/02 12:17:43;;;;;;;6.47;2.03;;;15.30;1.00;;;;;;4937533;29;20185;-81
2022/11/02 12:20:35;;;;;;;9.50;2.10;;;15.30;1.00;;;;;;4937813;29;20187;-80
2022/11/02 12:23:16;;;;;;;8.93;2.42;;;15.20;1.00;;;;;;4938109;29;20201;-81
2022/11/02 12:25:51;;;;;;;6.10;1.80;;;15.10;1.00;;;;;;4937830;29;20627;-80
2022/11/02 12:28:31;;;;;;;8.63;2.10;;;15.00;1.00;;;;;;4937657;29;20186;-80
2022/11/02 12:31:06;;;;;;;11.52;2.50;;;14.90;1.00;;;;;;4937685;29;20186;-81
2022/11/02 12:33:50;;;;;;;10.35;3.10;;;14.90;1.00;;;;;;4937783;29;20262;-80
2022/11/02 12:36:30;;;;;;;6.85;2.10;;;15.00;1.00;;;;;;4937486;29;20230;-80
2022/11/02 12:39:03;;;;;;;7.90;2.10;;;15.00;1.00;;;;;;4937533;29;20674;-80
2022/11/02 12:41:54;;;;;;;12.75;2.53;;;15.00;1.00;;;;;;4937155;29;20235;-80
2022/11/02 12:44:48;;;;;;;7.97;2.03;;;15.10;1.00;;;;;;4936025;29;20252;-81
2022/11/02 12:47:34;;;;;;;8.48;2.20;;;15.10;1.00;;;;;;4936866;29;20189;-80
2022/11/02 12:50:11;;;;;;;5.85;1.88;;;15.10;1.00;;;;;;4937418;29;20211;-80
2022/11/02 12:52:50;;;;;;;8.20;2.50;;;15.10;1.00;;;;;;4937058;29;20211;-80
2022/11/02 12:55:23;;;;;;;8.27;1.90;;;15.00;1.00;;;;;;4937253;29;20240;-81
2022/11/02 12:57:55;;;;;;;6.40;1.90;;;15.00;1.00;;;;;;4937220;29;20190;-81
2022/11/02 13:00:24;;;;;;;8.05;2.30;;;15.00;1.00;;;;;;4936890;29;20735;-81
2022/11/02 13:02:58;;;;;;;12.02;4.03;;;15.00;1.00;;;;;;4937055;29;20294;-80
2022/11/02 13:05:29;;;;;;;12.45;2.50;;;15.00;1.00;;;;;;4935918;29;20609;-80
2022/11/02 13:08:05;;;;;;;7.23;2.17;;;15.00;1.00;;;;;;4937045;29;20246;-81
2022/11/02 13:10:38;;;;;;;7.78;2.42;;;15.00;1.00;;;;;;4937030;29;20267;-80
2022/11/02 13:13:10;;;;;;;8.10;2.10;;;14.90;99.90;;;;;;4936814;29;20275;-81